Terminal Aerodrome Forecast
Issued by NWS Sterling, VA

Current Version | Previous Version | Graphics & Text | Print | Product List | Glossary On
Versions: 1 2 3 4 5 6 7 8 9 10 11 12 13 14 15 16 17 18 19 20 21 22 23 24
000
FTUS41 KLWX 200532
TAFDCA
TAF
KDCA 200532Z 2006/2106 22004KT P6SM FEW060
     FM201100 29004KT P6SM FEW060
     FM201300 27006KT P6SM BKN200
     FM202000 23007KT P6SM BKN060
     FM202200 21007KT P6SM SCT060
     FM210500 VRB03KT P6SM SCT060=

USA.gov is the U.S. government's official web portal to all federal, state and local government web resources and services.